Time;durP1;ratioP1;P1;durP2;ratioP2;P2;SDS_P1;SDS_P2;PMS_P1;PMS_P2;Temp;Humidity;BMP_temperature;BMP_pressure;BME280_temperature;BME280_humidity;BME280_pressure;Samples;Min_cycle;Max_cycle;Signal;HPM_P1;HPM_P2
2021/07/25 00:01:28;;;;;;;6.03;3.80;;;;;;;;;;10404431;28;20044;-59
2021/07/25 00:06:28;;;;;;;7.57;3.88;;;;;;;;;;10404798;28;20043;-60
2021/07/25 00:11:26;;;;;;;6.15;3.88;;;;;;;;;;10403910;28;20079;-60
2021/07/25 00:16:25;;;;;;;7.10;4.25;;;;;;;;;;10403676;28;20052;-60
2021/07/25 00:21:24;;;;;;;4.97;3.67;;;;;;;;;;10403903;28;20039;-60
2021/07/25 00:26:26;;;;;;;4.32;3.67;;;;;;;;;;10403013;28;20519;-60
2021/07/25 00:31:27;;;;;;;4.93;3.33;;;;;;;;;;10403153;28;20083;-60
2021/07/25 00:36:27;;;;;;;10.57;3.75;;;;;;;;;;10403272;28;20297;-59
2021/07/25 00:41:26;;;;;;;5.55;4.32;;;;;;;;;;10403372;28;20416;-60
2021/07/25 00:46:25;;;;;;;5.40;3.90;;;;;;;;;;10402356;28;20043;-60
2021/07/25 00:51:23;;;;;;;6.15;3.20;;;;;;;;;;10402505;28;20412;-59
2021/07/25 00:56:22;;;;;;;7.00;3.88;;;;;;;;;;10402309;28;20040;-60
2021/07/25 01:01:22;;;;;;;5.28;3.50;;;;;;;;;;10401739;28;20040;-60
2021/07/25 01:06:26;;;;;;;4.60;3.40;;;;;;;;;;10401727;28;20083;-59
2021/07/25 01:11:27;;;;;;;4.90;3.40;;;;;;;;;;10402094;28;20106;-59
2021/07/25 01:16:26;;;;;;;7.03;3.72;;;;;;;;;;10401309;28;20054;-59
2021/07/25 01:21:26;;;;;;;5.57;3.85;;;;;;;;;;10401341;28;20051;-60
2021/07/25 01:26:27;;;;;;;3.88;3.38;;;;;;;;;;10400075;28;20051;-60
2021/07/25 01:31:28;;;;;;;4.63;3.35;;;;;;;;;;10399828;28;20087;-60
2021/07/25 01:36:28;;;;;;;8.20;3.90;;;;;;;;;;10399698;28;20523;-60
2021/07/25 01:41:27;;;;;;;9.88;4.03;;;;;;;;;;10399488;28;20086;-60
2021/07/25 01:46:25;;;;;;;10.48;3.97;;;;;;;;;;10418887;27;20059;-60
2021/07/25 01:51:23;;;;;;;6.32;3.42;;;;;;;;;;10411020;27;20046;-60
2021/07/25 01:56:23;;;;;;;13.50;5.28;;;;;;;;;;10422782;27;20052;-60
2021/07/25 02:01:21;;;;;;;9.80;4.05;;;;;;;;;;10420981;27;20072;-60
2021/07/25 02:06:20;;;;;;;5.25;3.97;;;;;;;;;;10423560;27;20040;-60
2021/07/25 02:11:24;;;;;;;5.72;3.47;;;;;;;;;;10399363;28;20074;-59
2021/07/25 02:16:22;;;;;;;7.28;3.90;;;;;;;;;;10398619;28;20046;-60
2021/07/25 02:21:20;;;;;;;7.18;4.28;;;;;;;;;;10398324;28;20043;-60
2021/07/25 02:26:19;;;;;;;5.45;3.95;;;;;;;;;;10397766;28;20416;-59
2021/07/25 02:31:18;;;;;;;8.02;4.03;;;;;;;;;;10397999;28;20079;-59
2021/07/25 02:36:17;;;;;;;4.78;3.50;;;;;;;;;;10424974;27;20109;-59
2021/07/25 02:41:15;;;;;;;4.32;3.90;;;;;;;;;;10439113;27;20077;-59
2021/07/25 02:46:13;;;;;;;6.50;3.75;;;;;;;;;;10436791;28;20058;-59
2021/07/25 02:51:13;;;;;;;4.25;3.85;;;;;;;;;;10439725;28;20482;-59
2021/07/25 02:56:11;;;;;;;6.00;3.92;;;;;;;;;;10440181;28;20039;-59
2021/07/25 03:01:10;;;;;;;6.00;4.60;;;;;;;;;;10439213;28;20048;-59
2021/07/25 03:06:09;;;;;;;6.88;4.28;;;;;;;;;;10439731;28;20069;-59
2021/07/25 03:11:09;;;;;;;5.20;3.58;;;;;;;;;;10439332;28;20047;-60
2021/07/25 03:16:09;;;;;;;4.78;4.15;;;;;;;;;;10439840;28;20039;-59
2021/07/25 03:21:07;;;;;;;7.55;4.57;;;;;;;;;;10439487;28;20050;-59
2021/07/25 03:26:06;;;;;;;8.07;3.90;;;;;;;;;;10439557;28;20040;-59
2021/07/25 03:31:05;;;;;;;4.18;3.78;;;;;;;;;;10438364;28;20043;-59
2021/07/25 03:36:04;;;;;;;7.70;4.80;;;;;;;;;;10439339;28;20315;-60
2021/07/25 03:41:02;;;;;;;8.98;4.43;;;;;;;;;;10439150;28;20040;-59
2021/07/25 03:46:02;;;;;;;6.78;4.68;;;;;;;;;;10419778;27;20047;-59
2021/07/25 03:51:02;;;;;;;6.10;4.63;;;;;;;;;;10420174;27;20047;-59
2021/07/25 03:56:00;;;;;;;17.15;8.52;;;;;;;;;;10445758;27;20086;-59
2021/07/25 04:00:59;;;;;;;7.15;4.03;;;;;;;;;;10442272;27;20048;-60
2021/07/25 04:05:57;;;;;;;7.00;5.18;;;;;;;;;;10419469;27;20043;-59
2021/07/25 04:10:57;;;;;;;6.07;4.55;;;;;;;;;;10422483;27;20053;-59
2021/07/25 04:15:56;;;;;;;9.75;5.38;;;;;;;;;;10424234;27;20515;-59
2021/07/25 04:20:54;;;;;;;4.72;4.32;;;;;;;;;;10431615;27;20090;-59
2021/07/25 04:25:53;;;;;;;6.47;5.20;;;;;;;;;;10417737;27;20102;-59
2021/07/25 04:30:53;;;;;;;7.47;4.30;;;;;;;;;;10426053;27;20071;-59
2021/07/25 04:35:53;;;;;;;9.68;4.50;;;;;;;;;;10419216;27;20075;-59
2021/07/25 04:40:53;;;;;;;12.45;5.20;;;;;;;;;;10426854;27;20067;-59
2021/07/25 04:45:55;;;;;;;8.40;6.03;;;;;;;;;;10439823;27;20077;-60
2021/07/25 04:50:55;;;;;;;15.73;6.78;;;;;;;;;;10441200;27;20081;-59
2021/07/25 04:55:56;;;;;;;17.98;9.27;;;;;;;;;;10441518;27;20071;-60
2021/07/25 05:00:57;;;;;;;13.45;10.07;;;;;;;;;;10443334;27;20077;-59
2021/07/25 05:05:56;;;;;;;12.45;9.52;;;;;;;;;;10442834;27;20050;-59
2021/07/25 05:10:57;;;;;;;11.45;8.48;;;;;;;;;;10443323;27;20084;-60
2021/07/25 05:15:57;;;;;;;11.48;9.65;;;;;;;;;;10443044;27;20415;-59
2021/07/25 05:20:58;;;;;;;16.95;8.98;;;;;;;;;;10443150;27;20137;-59
2021/07/25 05:25:57;;;;;;;19.33;9.68;;;;;;;;;;10442456;27;20446;-59
2021/07/25 05:30:57;;;;;;;12.50;8.27;;;;;;;;;;10442412;27;20081;-59
2021/07/25 05:35:55;;;;;;;20.55;9.65;;;;;;;;;;10441481;27;20082;-59
2021/07/25 05:40:54;;;;;;;17.58;10.02;;;;;;;;;;10440733;27;20589;-60
2021/07/25 05:45:52;;;;;;;24.60;13.63;;;;;;;;;;10441984;27;20054;-60
2021/07/25 05:50:52;;;;;;;19.50;10.13;;;;;;;;;;10440721;27;20047;-59
2021/07/25 05:55:50;;;;;;;19.80;11.15;;;;;;;;;;10441437;27;20086;-59
2021/07/25 06:00:48;;;;;;;20.05;9.63;;;;;;;;;;10441332;27;20423;-59
2021/07/25 06:05:47;;;;;;;10.98;8.63;;;;;;;;;;10441821;27;20035;-59
2021/07/25 06:10:46;;;;;;;19.63;9.05;;;;;;;;;;10440836;27;20072;-59
2021/07/25 06:15:47;;;;;;;18.00;9.55;;;;;;;;;;10440035;27;20047;-59
2021/07/25 06:20:46;;;;;;;16.15;9.30;;;;;;;;;;10440611;27;20050;-59
2021/07/25 06:25:44;;;;;;;17.63;10.15;;;;;;;;;;10440492;27;20047;-59
2021/07/25 06:30:44;;;;;;;23.75;11.23;;;;;;;;;;10440467;27;20053;-59
2021/07/25 06:35:43;;;;;;;17.80;9.02;;;;;;;;;;10440331;27;20078;-59
2021/07/25 06:40:42;;;;;;;12.60;9.05;;;;;;;;;;10440137;27;20035;-59
2021/07/25 06:45:40;;;;;;;27.77;12.50;;;;;;;;;;10439281;28;20074;-60
2021/07/25 06:50:40;;;;;;;22.13;15.73;;;;;;;;;;10439113;28;20065;-59
2021/07/25 06:55:39;;;;;;;24.98;15.80;;;;;;;;;;10439707;28;20071;-59
2021/07/25 07:00:37;;;;;;;24.90;13.77;;;;;;;;;;10439664;28;20047;-59
2021/07/25 07:05:36;;;;;;;11.07;7.40;;;;;;;;;;10439559;28;20043;-59
2021/07/25 07:10:37;;;;;;;14.27;7.15;;;;;;;;;;10438239;28;20058;-60
2021/07/25 07:15:37;;;;;;;12.43;6.82;;;;;;;;;;10439363;28;20507;-60
2021/07/25 07:20:35;;;;;;;14.55;6.00;;;;;;;;;;10439351;27;20054;-60
2021/07/25 07:25:34;;;;;;;15.50;6.35;;;;;;;;;;10445775;27;20047;-59
2021/07/25 07:30:34;;;;;;;13.63;6.18;;;;;;;;;;10446019;27;20043;-60
2021/07/25 07:35:33;;;;;;;13.27;4.85;;;;;;;;;;10445759;27;20078;-61
2021/07/25 07:40:31;;;;;;;12.02;6.53;;;;;;;;;;10447419;27;20067;-60
2021/07/25 07:45:29;;;;;;;12.63;6.53;;;;;;;;;;10446747;27;20050;-60
2021/07/25 07:50:29;;;;;;;12.95;5.97;;;;;;;;;;10446486;27;20039;-61
2021/07/25 07:55:27;;;;;;;9.60;4.82;;;;;;;;;;10446018;27;20043;-61
2021/07/25 08:00:26;;;;;;;8.70;4.63;;;;;;;;;;10445823;27;20047;-60
2021/07/25 08:05:24;;;;;;;11.63;4.32;;;;;;;;;;10446321;27;20043;-61
2021/07/25 08:10:24;;;;;;;7.97;4.25;;;;;;;;;;10445679;27;20050;-60
2021/07/25 08:15:22;;;;;;;11.70;4.72;;;;;;;;;;10446136;27;20070;-60
2021/07/25 08:20:21;;;;;;;7.28;4.20;;;;;;;;;;10446497;27;20050;-60
2021/07/25 08:25:19;;;;;;;6.15;4.93;;;;;;;;;;10445542;27;20131;-60
2021/07/25 08:30:19;;;;;;;10.25;4.75;;;;;;;;;;10445642;27;20043;-60
2021/07/25 08:35:17;;;;;;;5.90;4.00;;;;;;;;;;10443817;27;20519;-60
2021/07/25 08:40:16;;;;;;;11.02;4.25;;;;;;;;;;10444942;27;20062;-60
2021/07/25 08:45:15;;;;;;;8.43;4.38;;;;;;;;;;10444414;27;20069;-60
2021/07/25 08:50:15;;;;;;;7.78;3.80;;;;;;;;;;10443951;27;20054;-61
2021/07/25 08:55:14;;;;;;;7.00;2.95;;;;;;;;;;10444795;27;20047;-61
2021/07/25 09:00:13;;;;;;;4.93;4.13;;;;;;;;;;10437362;27;20079;-59
2021/07/25 09:05:12;;;;;;;9.48;3.47;;;;;;;;;;10409684;27;20036;-60
2021/07/25 09:10:15;;;;;;;5.95;3.50;;;;;;;;;;10430827;27;20071;-60
2021/07/25 09:15:15;;;;;;;9.48;3.45;;;;;;;;;;10439715;27;20082;-59
2021/07/25 09:20:15;;;;;;;12.30;4.45;;;;;;;;;;10438287;27;20074;-59
2021/07/25 09:25:14;;;;;;;8.10;3.70;;;;;;;;;;10439305;27;20409;-58
2021/07/25 09:30:17;;;;;;;7.18;3.45;;;;;;;;;;10443969;27;20046;-59
2021/07/25 09:35:25;;;;;;;11.68;3.75;;;;;;;;;;10441288;27;20091;-59
2021/07/25 09:40:28;;;;;;;14.07;4.47;;;;;;;;;;10442620;27;20039;-59
2021/07/25 09:45:26;;;;;;;8.10;4.45;;;;;;;;;;10442395;27;20295;-60
2021/07/25 09:50:27;;;;;;;11.18;4.13;;;;;;;;;;10441728;27;20125;-59
2021/07/25 09:55:31;;;;;;;16.60;4.60;;;;;;;;;;10442446;27;20534;-59
2021/07/25 10:00:38;;;;;;;11.43;4.68;;;;;;;;;;10434966;27;20043;-58
2021/07/25 10:05:36;;;;;;;8.85;4.25;;;;;;;;;;10402976;27;20051;-59
2021/07/25 10:10:36;;;;;;;12.23;4.30;;;;;;;;;;10398604;28;20043;-59
2021/07/25 10:15:34;;;;;;;7.45;3.80;;;;;;;;;;10413651;27;20082;-57
2021/07/25 10:20:33;;;;;;;4.25;3.80;;;;;;;;;;10417238;27;20070;-59
2021/07/25 10:25:32;;;;;;;10.48;3.85;;;;;;;;;;10423131;27;20082;-59
2021/07/25 10:30:31;;;;;;;7.47;2.78;;;;;;;;;;10439041;27;20069;-59
2021/07/25 10:35:30;;;;;;;12.30;3.53;;;;;;;;;;10435074;27;20086;-60
2021/07/25 10:40:28;;;;;;;5.50;3.58;;;;;;;;;;10433040;27;20088;-60
2021/07/25 10:45:26;;;;;;;4.35;3.13;;;;;;;;;;10433395;27;20067;-60
2021/07/25 10:50:26;;;;;;;12.43;4.13;;;;;;;;;;10436731;28;20086;-59
2021/07/25 10:55:43;;;;;;;7.45;3.97;;;;;;;;;;10439390;27;20087;-59
2021/07/25 11:00:42;;;;;;;7.22;3.10;;;;;;;;;;10447626;27;20047;-60
2021/07/25 11:05:55;;;;;;;8.50;3.25;;;;;;;;;;10448197;27;20039;-59
2021/07/25 11:10:55;;;;;;;4.22;3.03;;;;;;;;;;10447321;27;20510;-60
2021/07/25 11:15:53;;;;;;;9.45;4.10;;;;;;;;;;10428647;27;20058;-61
2021/07/25 11:20:59;;;;;;;10.52;3.78;;;;;;;;;;10447609;27;20047;-60
2021/07/25 11:25:58;;;;;;;7.82;3.33;;;;;;;;;;10447320;27;20058;-60
2021/07/25 11:31:07;;;;;;;13.05;3.80;;;;;;;;;;10447255;27;20043;-59
2021/07/25 11:36:05;;;;;;;6.05;3.60;;;;;;;;;;10446258;27;20419;-59
2021/07/25 11:41:05;;;;;;;6.63;3.55;;;;;;;;;;10447145;27;20035;-60
2021/07/25 11:46:18;;;;;;;10.85;4.40;;;;;;;;;;10446029;27;20476;-59
2021/07/25 11:51:22;;;;;;;8.70;4.65;;;;;;;;;;10446787;27;20046;-60
2021/07/25 11:56:20;;;;;;;;;;;;;;;;;;10446250;27;20081;-60
2021/07/25 12:01:24;;;;;;;6.72;3.78;;;;;;;;;;10445806;27;19919;-60
2021/07/25 12:06:23;;;;;;;11.53;4.27;;;;;;;;;;10446176;27;20055;-60
2021/07/25 12:11:21;;;;;;;14.60;5.97;;;;;;;;;;10444327;27;20051;-60
2021/07/25 12:16:19;;;;;;;12.43;3.45;;;;;;;;;;10445627;27;20070;-59
2021/07/25 12:21:38;;;;;;;13.95;3.55;;;;;;;;;;10445110;27;20039;-59
2021/07/25 12:26:40;;;;;;;3.95;2.60;;;;;;;;;;10436672;27;20051;-59
2021/07/25 12:31:39;;;;;;;5.38;1.45;;;;;;;;;;10444655;27;20082;-59
2021/07/25 12:36:37;;;;;;;3.53;1.92;;;;;;;;;;10444184;27;20085;-60
2021/07/25 12:41:42;;;;;;;4.60;2.15;;;;;;;;;;10425426;27;20047;-60
2021/07/25 12:46:40;;;;;;;3.05;2.30;;;;;;;;;;10444790;27;20031;-60
2021/07/25 12:51:42;;;;;;;6.85;2.33;;;;;;;;;;10443164;27;20043;-61
2021/07/25 12:56:42;;;;;;;3.72;1.90;;;;;;;;;;10444174;27;20070;-59
2021/07/25 13:06:54;;;;;;;4.70;1.83;;;;;;;;;;10442935;27;20047;-59
2021/07/25 13:11:55;;;;;;;4.03;2.35;;;;;;;;;;10434154;27;20534;-60
2021/07/25 13:16:54;;;;;;;6.53;2.40;;;;;;;;;;10418243;27;20106;-59
2021/07/25 13:21:52;;;;;;;5.60;2.05;;;;;;;;;;10425581;27;20050;-59
2021/07/25 13:26:50;;;;;;;3.22;2.53;;;;;;;;;;10418577;27;20063;-59
2021/07/25 13:31:50;;;;;;;3.22;2.70;;;;;;;;;;10425896;27;20059;-59
2021/07/25 13:36:48;;;;;;;2.92;2.25;;;;;;;;;;10425530;27;20043;-59
2021/07/25 13:41:46;;;;;;;5.13;2.47;;;;;;;;;;10441168;27;20054;-59
2021/07/25 13:46:55;;;;;;;4.65;2.40;;;;;;;;;;10408961;27;20047;-59
2021/07/25 13:51:55;;;;;;;5.20;2.38;;;;;;;;;;10422107;27;20067;-59
2021/07/25 13:56:53;;;;;;;4.10;2.50;;;;;;;;;;10422867;27;20079;-60
2021/07/25 14:01:51;;;;;;;6.32;2.28;;;;;;;;;;10422852;27;20039;-59
2021/07/25 14:06:49;;;;;;;3.63;2.72;;;;;;;;;;10420140;27;20043;-59
2021/07/25 14:11:49;;;;;;;2.70;2.50;;;;;;;;;;10432503;27;20074;-60
2021/07/25 14:16:47;;;;;;;5.25;3.28;;;;;;;;;;10421182;27;20078;-60
2021/07/25 14:21:46;;;;;;;6.40;3.55;;;;;;;;;;10423528;27;20074;-60
2021/07/25 14:26:44;;;;;;;7.25;2.65;;;;;;;;;;10420928;27;20075;-59
2021/07/25 14:31:44;;;;;;;6.55;2.70;;;;;;;;;;10419114;27;20067;-59
2021/07/25 14:36:43;;;;;;;7.10;3.65;;;;;;;;;;10400394;28;20083;-60
2021/07/25 14:41:41;;;;;;;3.95;2.75;;;;;;;;;;10408740;27;20047;-60
2021/07/25 14:46:39;;;;;;;5.18;3.22;;;;;;;;;;10398004;28;20050;-59
2021/07/25 14:51:39;;;;;;;4.57;2.33;;;;;;;;;;10414461;28;20074;-60
2021/07/25 14:56:37;;;;;;;3.08;2.47;;;;;;;;;;10397411;28;20086;-58
2021/07/25 15:01:35;;;;;;;12.02;3.90;;;;;;;;;;10408920;28;20432;-58
2021/07/25 15:06:34;;;;;;;5.13;3.10;;;;;;;;;;10427340;28;20845;-60
2021/07/25 15:11:34;;;;;;;5.90;4.15;;;;;;;;;;10437139;28;20081;-60
2021/07/25 15:16:32;;;;;;;7.40;6.65;;;;;;;;;;10419626;28;20365;-62
2021/07/25 15:21:31;;;;;;;3.38;2.85;;;;;;;;;;10439262;28;20046;-59
2021/07/25 15:26:29;;;;;;;8.68;5.25;;;;;;;;;;10439625;28;20045;-59
2021/07/25 15:31:29;;;;;;;6.72;4.70;;;;;;;;;;10438469;28;20058;-60
2021/07/25 15:36:27;;;;;;;4.85;2.78;;;;;;;;;;10438824;28;20047;-59
2021/07/25 15:41:25;;;;;;;6.97;4.53;;;;;;;;;;10438856;28;20043;-60
2021/07/25 15:46:23;;;;;;;6.95;3.55;;;;;;;;;;10444690;27;20050;-60
2021/07/25 15:51:23;;;;;;;3.47;3.15;;;;;;;;;;10446194;27;20050;-60
2021/07/25 15:56:22;;;;;;;5.40;3.13;;;;;;;;;;10446780;27;20043;-59
2021/07/25 16:01:21;;;;;;;5.00;3.10;;;;;;;;;;10445803;27;20050;-60
2021/07/25 16:06:20;;;;;;;10.07;6.50;;;;;;;;;;10446359;27;20055;-60
2021/07/25 16:11:21;;;;;;;6.68;4.18;;;;;;;;;;10445496;27;20051;-60
2021/07/25 16:16:20;;;;;;;9.25;4.30;;;;;;;;;;10445184;27;20465;-60
2021/07/25 16:21:20;;;;;;;8.25;3.22;;;;;;;;;;10445737;27;20047;-60
2021/07/25 16:26:21;;;;;;;5.60;4.30;;;;;;;;;;10445745;27;20048;-61
2021/07/25 16:31:20;;;;;;;5.93;2.72;;;;;;;;;;10444707;27;20506;-61
2021/07/25 16:36:21;;;;;;;7.43;5.57;;;;;;;;;;10427002;27;20051;-61
2021/07/25 16:41:21;;;;;;;5.63;3.30;;;;;;;;;;10445191;27;20039;-61
2021/07/25 16:46:22;;;;;;;5.63;4.95;;;;;;;;;;10444670;27;20502;-61
2021/07/25 16:51:20;;;;;;;9.73;4.95;;;;;;;;;;10444166;27;20082;-61
2021/07/25 16:56:19;;;;;;;11.40;8.50;;;;;;;;;;10443983;27;20113;-61
2021/07/25 17:01:19;;;;;;;7.45;6.65;;;;;;;;;;10443776;27;20079;-61
2021/07/25 17:06:17;;;;;;;11.63;8.55;;;;;;;;;;10443980;27;20039;-60
2021/07/25 17:11:17;;;;;;;12.30;7.32;;;;;;;;;;10443368;27;20047;-61
2021/07/25 17:16:24;;;;;;;12.15;5.38;;;;;;;;;;10443375;27;20515;-60
2021/07/25 17:21:23;;;;;;;14.13;12.65;;;;;;;;;;10442840;27;20051;-60
2021/07/25 17:26:21;;;;;;;15.23;9.77;;;;;;;;;;10441918;27;20411;-60
2021/07/25 17:31:20;;;;;;;7.70;5.38;;;;;;;;;;10442420;27;20062;-60
2021/07/25 17:36:19;;;;;;;9.82;7.22;;;;;;;;;;10442004;27;20527;-60
2021/07/25 17:41:18;;;;;;;16.63;11.07;;;;;;;;;;10442157;27;20569;-61
2021/07/25 17:46:16;;;;;;;8.35;3.45;;;;;;;;;;10441308;27;20066;-61
2021/07/25 17:51:18;;;;;;;8.50;4.00;;;;;;;;;;10442238;27;20066;-60
2021/07/25 17:56:17;;;;;;;12.65;5.95;;;;;;;;;;10441908;27;20046;-60
2021/07/25 18:01:15;;;;;;;10.88;6.00;;;;;;;;;;10441420;27;20082;-60
2021/07/25 18:06:19;;;;;;;6.07;4.13;;;;;;;;;;10439822;27;20073;-60
2021/07/25 18:11:18;;;;;;;10.15;3.55;;;;;;;;;;10441370;27;20051;-60
2021/07/25 18:16:17;;;;;;;7.50;3.55;;;;;;;;;;10440693;27;20051;-60
2021/07/25 18:21:16;;;;;;;11.13;4.53;;;;;;;;;;10441036;27;20074;-60
2021/07/25 18:26:15;;;;;;;6.50;3.65;;;;;;;;;;10440796;27;20039;-60
2021/07/25 18:31:14;;;;;;;9.75;4.15;;;;;;;;;;10440118;27;20046;-60
2021/07/25 18:36:13;;;;;;;8.30;4.10;;;;;;;;;;10440381;27;20051;-60
2021/07/25 18:41:12;;;;;;;5.20;3.17;;;;;;;;;;10440360;27;20043;-60
2021/07/25 18:46:27;;;;;;;8.82;3.17;;;;;;;;;;10424853;27;20112;-60
2021/07/25 18:51:27;;;;;;;7.43;4.90;;;;;;;;;;10410089;27;20067;-60
2021/07/25 18:56:26;;;;;;;4.85;2.80;;;;;;;;;;10409967;28;20051;-60
2021/07/25 19:01:24;;;;;;;5.55;3.00;;;;;;;;;;10402414;27;20055;-60
2021/07/25 19:06:24;;;;;;;5.65;2.67;;;;;;;;;;10407249;28;20071;-60
2021/07/25 19:11:23;;;;;;;9.20;3.05;;;;;;;;;;10408691;27;20464;-60
2021/07/25 19:16:21;;;;;;;4.88;3.28;;;;;;;;;;10418923;27;20067;-59
2021/07/25 19:21:21;;;;;;;5.57;2.92;;;;;;;;;;10413008;27;20070;-60
2021/07/25 19:26:21;;;;;;;3.20;2.30;;;;;;;;;;10405979;28;20090;-60
2021/07/25 19:31:38;;;;;;;11.50;2.63;;;;;;;;;;10404801;28;20079;-60
2021/07/25 19:36:37;;;;;;;4.25;2.60;;;;;;;;;;10405604;28;20055;-60
2021/07/25 19:41:39;;;;;;;8.65;2.50;;;;;;;;;;10404903;28;20075;-60
2021/07/25 19:46:58;;;;;;;3.72;2.92;;;;;;;;;;10426459;27;20086;-60
2021/07/25 19:51:59;;;;;;;15.30;3.70;;;;;;;;;;10447140;27;20043;-60
2021/07/25 19:56:59;;;;;;;8.27;2.72;;;;;;;;;;10435170;27;20078;-60
2021/07/25 20:02:16;;;;;;;3.75;3.22;;;;;;;;;;10417082;27;20071;-60
2021/07/25 20:07:15;;;;;;;5.75;3.28;;;;;;;;;;10410112;27;20071;-61
2021/07/25 20:12:15;;;;;;;7.50;3.00;;;;;;;;;;10436337;27;20093;-62
2021/07/25 20:17:14;;;;;;;4.82;2.80;;;;;;;;;;10422387;27;20475;-61
2021/07/25 20:22:15;;;;;;;5.20;2.72;;;;;;;;;;10414686;27;20074;-62
2021/07/25 20:27:15;;;;;;;7.43;2.67;;;;;;;;;;10437944;27;20411;-61
2021/07/25 20:32:17;;;;;;;8.20;3.10;;;;;;;;;;10408759;27;20094;-61
2021/07/25 20:37:16;;;;;;;7.80;2.80;;;;;;;;;;10423614;27;20086;-61
2021/07/25 20:42:16;;;;;;;6.55;2.70;;;;;;;;;;10403465;28;20071;-61
2021/07/25 20:47:15;;;;;;;6.80;3.85;;;;;;;;;;10417872;27;20089;-61
2021/07/25 20:52:13;;;;;;;4.45;2.42;;;;;;;;;;10403166;28;20122;-61
2021/07/25 20:57:12;;;;;;;3.58;2.38;;;;;;;;;;10402856;28;20039;-61
2021/07/25 21:02:14;;;;;;;7.25;2.33;;;;;;;;;;10402551;28;20082;-61
2021/07/25 21:07:13;;;;;;;5.25;2.22;;;;;;;;;;10402649;28;20055;-61
2021/07/25 21:12:11;;;;;;;5.20;2.47;;;;;;;;;;10401693;28;20043;-60
2021/07/25 21:17:10;;;;;;;4.03;2.58;;;;;;;;;;10401290;28;20075;-61
2021/07/25 21:22:11;;;;;;;4.15;2.20;;;;;;;;;;10401368;28;20079;-61
2021/07/25 21:27:10;;;;;;;5.30;2.70;;;;;;;;;;10401473;28;20055;-60
2021/07/25 21:32:08;;;;;;;5.88;2.70;;;;;;;;;;10401182;28;20054;-61
2021/07/25 21:37:07;;;;;;;8.90;3.28;;;;;;;;;;10401892;28;20050;-61
2021/07/25 21:42:06;;;;;;;4.07;2.75;;;;;;;;;;10398775;28;20070;-61
2021/07/25 21:47:05;;;;;;;4.00;2.58;;;;;;;;;;10400181;28;20499;-61
2021/07/25 21:52:04;;;;;;;9.68;3.17;;;;;;;;;;10400746;28;20044;-61
2021/07/25 21:57:02;;;;;;;8.18;3.10;;;;;;;;;;10400242;28;20040;-61
2021/07/25 22:02:03;;;;;;;6.60;3.10;;;;;;;;;;10400189;28;20075;-61
2021/07/25 22:07:02;;;;;;;6.13;3.00;;;;;;;;;;10399765;28;20070;-61
2021/07/25 22:12:01;;;;;;;5.15;2.67;;;;;;;;;;10399953;28;20050;-61
2021/07/25 22:16:59;;;;;;;6.25;2.83;;;;;;;;;;10399829;28;20054;-61
2021/07/25 22:21:59;;;;;;;7.28;3.30;;;;;;;;;;10398332;28;20051;-61
2021/07/25 22:26:57;;;;;;;8.25;3.55;;;;;;;;;;10399459;28;20051;-61
2021/07/25 22:31:57;;;;;;;9.30;3.45;;;;;;;;;;10380276;28;20298;-61
2021/07/25 22:36:55;;;;;;;4.40;2.80;;;;;;;;;;10398449;28;20047;-61
2021/07/25 22:41:55;;;;;;;4.68;2.40;;;;;;;;;;10398222;28;20098;-61
2021/07/25 22:46:53;;;;;;;12.77;3.20;;;;;;;;;;10398160;28;20060;-62
2021/07/25 22:51:53;;;;;;;5.10;3.20;;;;;;;;;;10398000;28;20145;-61
2021/07/25 22:56:53;;;;;;;5.32;2.83;;;;;;;;;;10398686;28;20035;-61
2021/07/25 23:01:53;;;;;;;11.30;2.85;;;;;;;;;;10398285;28;20468;-61
2021/07/25 23:06:52;;;;;;;4.20;2.78;;;;;;;;;;10398240;28;20062;-61
2021/07/25 23:11:50;;;;;;;4.20;2.53;;;;;;;;;;10397729;28;20047;-61
2021/07/25 23:16:48;;;;;;;5.15;2.88;;;;;;;;;;10398498;28;20040;-60
2021/07/25 23:21:48;;;;;;;4.75;3.53;;;;;;;;;;10397380;28;20078;-61
2021/07/25 23:26:46;;;;;;;5.88;3.13;;;;;;;;;;10397338;28;20570;-61
2021/07/25 23:31:45;;;;;;;3.15;2.67;;;;;;;;;;10397741;28;20409;-61
2021/07/25 23:36:43;;;;;;;8.48;3.10;;;;;;;;;;10379158;28;20500;-61
2021/07/25 23:41:43;;;;;;;5.60;2.60;;;;;;;;;;10397810;28;20082;-61
2021/07/25 23:46:41;;;;;;;5.32;3.15;;;;;;;;;;10379311;28;20055;-61
2021/07/25 23:51:40;;;;;;;4.60;3.47;;;;;;;;;;10398194;28;20035;-60
2021/07/25 23:56:38;;;;;;;3.75;2.55;;;;;;;;;;10396829;28;20084;-61
